Time;durP1;ratioP1;P1;durP2;ratioP2;P2;SDS_P1;SDS_P2;PMS_P1;PMS_P2;Temp;Humidity;BMP_temperature;BMP_pressure;BME280_temperature;BME280_humidity;BME280_pressure;Samples;Min_cycle;Max_cycle;Signal;HPM_P1;HPM_P2
2023/04/25 00:01:56;;;;;;;16.90;8.80;;;;;;;11.77;58.95;100015.24;108418;1256;65295;-46
2023/04/25 00:04:23;;;;;;;11.30;8.30;;;;;;;11.72;58.95;100015.80;108448;1254;58685;-47
2023/04/25 00:06:52;;;;;;;13.80;7.90;;;;;;;11.67;59.20;100016.94;108449;1254;58977;-46
2023/04/25 00:09:19;;;;;;;9.00;6.80;;;;;;;11.62;59.52;100015.17;108564;1254;66254;-47
2023/04/25 00:11:45;;;;;;;10.30;7.60;;;;;;;11.59;59.83;100013.69;108357;1254;232893;-46
2023/04/25 00:15:26;;;;;;;9.10;6.60;;;;;;;11.38;60.59;100013.09;101836;1294;602384;-48
2023/04/25 00:17:53;;;;;;;17.30;7.50;;;;;;;11.57;59.79;100013.80;104031;1267;60469;-47
2023/04/25 00:20:21;;;;;;;10.00;7.20;;;;;;;11.57;59.71;100010.18;104328;1269;59673;-48
2023/04/25 00:22:49;;;;;;;12.90;8.20;;;;;;;11.51;59.74;100003.95;104117;1271;64548;-46
2023/04/25 00:25:16;;;;;;;12.00;8.50;;;;;;;11.46;59.90;99999.19;104076;1264;63546;-45
2023/04/25 00:27:43;;;;;;;10.70;7.40;;;;;;;11.40;60.05;99996.05;104189;1266;65109;-45
2023/04/25 00:30:11;;;;;;;12.20;8.20;;;;;;;11.35;60.25;99997.54;104269;1267;59308;-46
2023/04/25 00:32:37;;;;;;;11.40;7.60;;;;;;;11.30;60.26;99994.23;107828;1262;58347;-46
2023/04/25 00:35:05;;;;;;;11.10;7.90;;;;;;;11.26;60.46;99991.65;108344;1256;67975;-46
2023/04/25 00:37:32;;;;;;;10.90;7.80;;;;;;;11.21;60.26;99986.33;108319;1254;63755;-46
2023/04/25 00:39:59;;;;;;;10.50;7.20;;;;;;;11.10;60.39;99987.27;108253;1256;68280;-47
2023/04/25 00:42:26;;;;;;;9.30;6.40;;;;;;;11.09;60.40;99985.61;108377;1254;59555;-47
2023/04/25 00:44:53;;;;;;;9.90;7.00;;;;;;;11.15;60.31;99986.50;108344;1255;58724;-46
2023/04/25 00:47:20;;;;;;;9.10;6.50;;;;;;;11.19;60.35;99985.46;108363;1253;67652;-47
2023/04/25 00:49:47;;;;;;;9.60;6.30;;;;;;;11.21;60.45;99986.88;108264;1253;64436;-46
2023/04/25 00:52:14;;;;;;;10.40;7.20;;;;;;;11.19;60.78;99985.25;108357;1255;65129;-47
2023/04/25 00:54:41;;;;;;;11.20;7.10;;;;;;;11.18;60.93;99983.46;108297;1260;58080;-47
2023/04/25 00:57:08;;;;;;;8.80;7.10;;;;;;;11.16;60.86;99985.17;108248;1255;61033;-47
2023/04/25 00:59:35;;;;;;;10.50;7.80;;;;;;;11.13;60.62;99984.70;108306;1256;67066;-46
2023/04/25 01:02:02;;;;;;;10.80;7.90;;;;;;;11.06;60.77;99982.16;108132;1253;64431;-47
2023/04/25 01:04:29;;;;;;;9.40;7.70;;;;;;;11.00;60.76;99979.60;108213;1254;64838;-47
2023/04/25 01:06:56;;;;;;;12.10;6.80;;;;;;;10.94;60.57;99974.30;108399;1253;59264;-46
2023/04/25 01:09:23;;;;;;;8.20;6.00;;;;;;;10.89;60.70;99975.09;108417;1259;59762;-46
2023/04/25 01:11:50;;;;;;;8.50;6.30;;;;;;;10.88;60.65;99978.13;108353;1253;66371;-46
2023/04/25 01:14:17;;;;;;;12.60;6.60;;;;;;;10.90;60.60;99984.33;108239;1256;62745;-46
2023/04/25 01:16:44;;;;;;;10.00;6.80;;;;;;;10.89;60.78;99981.53;108285;1255;66448;-46
2023/04/25 01:19:12;;;;;;;10.10;7.00;;;;;;;10.89;60.92;99984.05;108388;1257;59901;-47
2023/04/25 01:21:39;;;;;;;9.80;6.80;;;;;;;10.86;60.96;99982.35;108250;1254;58722;-47
2023/04/25 01:24:06;;;;;;;11.80;7.30;;;;;;;10.83;61.04;99985.13;108352;1253;66472;-46
2023/04/25 01:26:33;;;;;;;10.00;7.40;;;;;;;10.79;61.06;99980.71;108156;1259;63392;-46
2023/04/25 01:29:00;;;;;;;10.70;7.40;;;;;;;10.76;61.08;99979.58;108144;1254;65020;-47
2023/04/25 01:31:27;;;;;;;10.10;7.30;;;;;;;10.76;60.88;99978.48;108162;1254;59273;-47
2023/04/25 01:33:54;;;;;;;10.30;7.00;;;;;;;10.70;60.87;99981.64;108508;1259;59497;-46
2023/04/25 01:36:21;;;;;;;10.50;7.00;;;;;;;10.65;60.86;99980.15;108291;1257;66759;-47
2023/04/25 01:38:48;;;;;;;9.50;6.30;;;;;;;10.65;60.70;99982.44;108129;1254;62570;-46
2023/04/25 01:41:16;;;;;;;9.40;6.70;;;;;;;10.68;60.61;99977.99;108119;1260;68266;-46
2023/04/25 01:43:43;;;;;;;15.60;6.80;;;;;;;10.66;60.53;99977.77;108113;1256;58751;-46
2023/04/25 01:46:11;;;;;;;11.70;7.10;;;;;;;10.62;60.59;99973.24;108056;1263;58463;-46
2023/04/25 01:48:38;;;;;;;10.30;6.70;;;;;;;10.57;60.53;99971.56;108254;1256;65532;-46
2023/04/25 01:51:06;;;;;;;9.40;6.60;;;;;;;10.53;60.68;99970.50;108203;1256;62470;-46
2023/04/25 01:53:33;;;;;;;9.10;6.50;;;;;;;10.50;60.76;99966.90;108485;1252;66352;-47
2023/04/25 01:56:01;;;;;;;10.30;7.30;;;;;;;10.45;60.79;99964.50;108300;1252;57951;-47
2023/04/25 01:58:32;;;;;;;9.70;6.90;;;;;;;10.42;61.00;99963.21;108350;1254;58350;-46
2023/04/25 02:01:25;;;;;;;10.50;6.50;;;;;;;10.44;61.10;99967.35;108352;1257;66378;-46
2023/04/25 02:04:07;;;;;;;9.90;6.90;;;;;;;10.48;61.10;99966.52;108675;1250;63991;-46
2023/04/25 02:06:36;;;;;;;10.00;7.10;;;;;;;10.50;61.09;99966.19;108547;1250;66506;-46
2023/04/25 02:09:03;;;;;;;9.30;6.50;;;;;;;10.50;61.02;99964.80;108414;1258;59242;-46
2023/04/25 02:11:29;;;;;;;9.00;7.30;;;;;;;10.45;60.96;99965.16;108471;1258;58945;-46
2023/04/25 02:14:15;;;;;;;11.20;8.40;;;;;;;10.41;60.92;99961.66;108566;1250;66151;-46
2023/04/25 02:17:05;;;;;;;9.70;7.50;;;;;;;10.36;60.92;99959.48;108464;1258;64199;-46
2023/04/25 02:19:32;;;;;;;14.40;8.10;;;;;;;10.32;60.79;99954.91;108442;1256;67711;-46
2023/04/25 02:21:59;;;;;;;11.50;8.10;;;;;;;10.27;60.90;99954.08;108590;1252;58927;-46
2023/04/25 02:24:27;;;;;;;10.20;7.30;;;;;;;10.23;60.92;99953.33;108554;1254;58374;-46
2023/04/25 02:26:55;;;;;;;13.90;7.70;;;;;;;10.17;60.80;99954.90;108522;1256;66189;-46
2023/04/25 02:29:22;;;;;;;11.60;8.00;;;;;;;10.10;60.85;99948.65;108566;1252;63932;-46
2023/04/25 02:31:49;;;;;;;10.90;7.20;;;;;;;10.11;60.75;99949.81;108627;1256;66054;-46
2023/04/25 02:34:17;;;;;;;8.90;6.70;;;;;;;10.15;60.76;99952.48;108547;1259;59296;-46
2023/04/25 02:36:43;;;;;;;12.60;7.30;;;;;;;10.19;61.00;99951.44;108648;1252;58876;-46
2023/04/25 02:39:10;;;;;;;8.90;6.70;;;;;;;10.22;61.28;99953.79;108604;1252;66517;-46
2023/04/25 02:41:38;;;;;;;12.30;7.20;;;;;;;10.22;61.54;99952.91;108617;1252;62774;-46
2023/04/25 02:44:05;;;;;;;10.00;7.20;;;;;;;10.21;61.66;99953.52;108584;1253;66298;-47
2023/04/25 02:46:31;;;;;;;9.60;7.30;;;;;;;10.18;61.72;99952.38;108580;1252;58104;-47
2023/04/25 02:49:03;;;;;;;10.90;7.60;;;;;;;10.14;61.81;99952.88;108399;1253;59530;-46
2023/04/25 02:51:30;;;;;;;10.90;7.60;;;;;;;10.12;62.01;99949.38;108557;1257;66754;-46
2023/04/25 02:53:58;;;;;;;11.10;7.00;;;;;;;10.10;61.98;99950.27;108430;1253;65789;-46
2023/04/25 02:56:26;;;;;;;8.90;6.70;;;;;;;10.12;61.86;99952.59;108491;1253;66401;-47
2023/04/25 02:58:53;;;;;;;8.80;6.60;;;;;;;10.16;61.83;99951.80;108543;1257;58643;-46
2023/04/25 03:01:20;;;;;;;12.00;7.30;;;;;;;10.22;61.85;99951.16;108432;1259;57742;-46
2023/04/25 03:03:48;;;;;;;9.70;7.50;;;;;;;10.27;61.76;99949.59;108452;1253;66829;-46
2023/04/25 03:06:15;;;;;;;10.70;8.00;;;;;;;10.27;61.68;99954.98;108563;1253;76026;-46
2023/04/25 03:08:43;;;;;;;11.70;8.10;;;;;;;10.26;61.61;99954.73;108396;1251;65785;-46
2023/04/25 03:11:10;;;;;;;9.90;8.00;;;;;;;10.26;61.68;99952.08;108515;1252;58792;-46
2023/04/25 03:13:37;;;;;;;9.70;7.50;;;;;;;10.27;61.65;99954.13;108501;1253;59415;-46
2023/04/25 03:16:05;;;;;;;9.70;7.40;;;;;;;10.27;61.57;99954.27;108456;1251;66210;-46
2023/04/25 03:18:32;;;;;;;11.00;7.60;;;;;;;10.27;61.59;99953.38;108568;1251;63801;-46
2023/04/25 03:20:59;;;;;;;9.80;6.30;;;;;;;10.32;61.58;99954.77;108493;1251;66089;-46
2023/04/25 03:23:26;;;;;;;8.70;5.70;;;;;;;10.37;61.72;99955.20;108524;1251;58535;-46
2023/04/25 03:25:53;;;;;;;9.70;6.70;;;;;;;10.43;62.02;99957.36;108573;1257;59811;-46
2023/04/25 03:28:20;;;;;;;10.00;6.80;;;;;;;10.45;62.21;99952.58;108466;1251;66836;-46
2023/04/25 03:30:47;;;;;;;11.00;6.90;;;;;;;10.47;62.32;99954.85;108539;1256;63741;-47
2023/04/25 03:33:14;;;;;;;8.60;7.00;;;;;;;10.51;62.26;99956.11;108536;1251;65923;-46
2023/04/25 03:35:42;;;;;;;11.40;7.10;;;;;;;10.54;62.08;99962.13;108661;1257;58967;-46
2023/04/25 03:38:09;;;;;;;11.50;7.50;;;;;;;10.54;62.05;99964.40;108514;1251;59057;-46
2023/04/25 03:40:38;;;;;;;11.00;7.50;;;;;;;10.53;61.98;99963.42;108634;1253;66524;-46
2023/04/25 03:43:15;;;;;;;11.90;7.40;;;;;;;10.54;62.07;99962.33;108492;1251;63760;-46
2023/04/25 03:45:46;;;;;;;9.60;7.00;;;;;;;10.61;61.90;99959.45;108504;1258;65189;-46
2023/04/25 03:48:14;;;;;;;10.80;6.80;;;;;;;10.69;61.83;99958.75;108459;1251;58159;-46
2023/04/25 03:50:42;;;;;;;12.70;6.70;;;;;;;10.76;61.86;99951.81;108497;1258;59333;-46
2023/04/25 03:53:09;;;;;;;10.60;7.50;;;;;;;10.84;61.71;99947.84;108572;1254;66056;-46
2023/04/25 03:55:55;;;;;;;10.90;7.70;;;;;;;10.88;61.80;99949.22;108697;1254;63468;-46
2023/04/25 03:58:24;;;;;;;10.60;6.90;;;;;;;10.91;61.87;99948.58;108627;1253;66453;-46
2023/04/25 04:00:51;;;;;;;11.70;7.70;;;;;;;10.95;61.84;99949.11;108441;1259;59017;-46
2023/04/25 04:03:18;;;;;;;11.30;7.90;;;;;;;10.98;61.70;99949.75;108531;1254;59703;-47
2023/04/25 04:05:46;;;;;;;11.00;7.90;;;;;;;11.01;61.80;99948.59;108612;1256;67632;-47
2023/04/25 04:08:13;;;;;;;11.50;7.90;;;;;;;11.05;61.96;99950.31;108547;1251;63609;-46
2023/04/25 04:10:41;;;;;;;13.30;7.50;;;;;;;11.12;61.78;99948.08;108648;1256;64874;-46
2023/04/25 04:13:08;;;;;;;12.50;7.80;;;;;;;11.24;61.78;99949.54;108471;1254;59508;-46
2023/04/25 04:15:35;;;;;;;11.80;7.60;;;;;;;11.37;61.99;99951.54;108619;1256;59084;-47
2023/04/25 04:18:02;;;;;;;12.10;8.10;;;;;;;11.49;62.19;99945.52;108334;1250;68336;-46
2023/04/25 04:20:30;;;;;;;11.30;8.10;;;;;;;11.59;62.14;99943.04;108437;1259;62871;-47
2023/04/25 04:22:57;;;;;;;11.80;7.70;;;;;;;11.69;61.99;99939.50;108505;1250;66172;-47
2023/04/25 04:25:24;;;;;;;13.20;7.80;;;;;;;11.79;62.06;99938.77;108358;1256;61364;-47
2023/04/25 04:28:21;;;;;;;11.30;8.70;;;;;;;11.85;62.27;99942.05;108467;1253;59232;-46
2023/04/25 04:31:00;;;;;;;10.70;7.50;;;;;;;11.90;62.55;99944.12;108443;1251;67364;-46
2023/04/25 04:33:28;;;;;;;9.70;6.60;;;;;;;11.97;62.58;99943.06;108539;1259;62944;-46
2023/04/25 04:35:58;;;;;;;11.40;7.40;;;;;;;12.04;62.56;99952.56;108645;1255;66366;-46
2023/04/25 04:38:26;;;;;;;11.00;7.40;;;;;;;12.11;62.65;99950.59;108524;1256;59084;-47
2023/04/25 04:40:56;;;;;;;10.20;7.00;;;;;;;12.18;62.72;99941.88;108730;1251;60725;-46
2023/04/25 04:43:43;;;;;;;11.90;6.90;;;;;;;12.25;62.66;99935.92;108552;1256;66001;-46
2023/04/25 04:46:41;;;;;;;12.90;7.10;;;;;;;12.32;62.43;99926.59;108573;1250;63596;-46
2023/04/25 04:49:32;;;;;;;10.00;7.10;;;;;;;12.39;62.15;99920.37;108221;1253;66566;-47
2023/04/25 04:52:19;;;;;;;10.10;6.40;;;;;;;12.45;61.94;99923.63;108525;1253;60068;-46
2023/04/25 04:54:52;;;;;;;8.80;6.80;;;;;;;12.51;61.64;99926.23;108646;1251;58969;-46
2023/04/25 04:57:42;;;;;;;9.60;6.40;;;;;;;12.61;61.38;99926.67;108324;1250;67226;-46
2023/04/25 05:00:32;;;;;;;8.70;5.70;;;;;;;12.76;60.76;99927.39;108547;1250;63623;-46
2023/04/25 05:03:16;;;;;;;7.80;5.60;;;;;;;12.85;60.33;99926.16;108498;1254;64850;-47
2023/04/25 05:06:05;;;;;;;9.30;6.20;;;;;;;12.96;59.99;99927.04;108508;1256;59065;-46
2023/04/25 05:08:52;;;;;;;8.80;6.20;;;;;;;13.08;59.44;99920.99;108535;1250;63291;-46
2023/04/25 05:11:36;;;;;;;11.40;5.90;;;;;;;13.14;59.09;99917.13;108465;1259;69143;-46
2023/04/25 05:14:23;;;;;;;16.80;6.40;;;;;;;13.23;58.77;99921.02;108563;1250;63977;-46
2023/04/25 05:17:08;;;;;;;7.90;5.80;;;;;;;13.30;58.59;99923.20;108515;1254;65115;-46
2023/04/25 05:19:41;;;;;;;;;;;;;;;13.37;58.53;99922.55;108452;1252;60192;-47
2023/04/25 05:22:26;;;;;;;9.10;6.10;;;;;;;13.44;58.39;99923.94;108493;1253;60833;-46
2023/04/25 05:25:16;;;;;;;8.50;6.50;;;;;;;13.52;57.98;99924.56;108418;1259;66118;-47
2023/04/25 05:27:56;;;;;;;9.20;6.50;;;;;;;13.60;57.45;99922.94;108603;1257;64179;-46
2023/04/25 05:30:44;;;;;;;9.20;5.60;;;;;;;13.69;57.08;99919.73;108598;1256;66335;-46
2023/04/25 05:33:17;;;;;;;8.00;5.90;;;;;;;13.80;56.57;99918.36;108444;1254;60167;-46
2023/04/25 05:35:44;;;;;;;10.10;5.30;;;;;;;13.94;56.55;99918.27;108699;1254;58981;-47
2023/04/25 05:38:11;;;;;;;11.80;5.90;;;;;;;14.05;56.43;99919.75;108561;1254;67286;-47
2023/04/25 05:40:57;;;;;;;9.40;5.20;;;;;;;14.17;56.20;99921.71;108574;1253;62711;-47
2023/04/25 05:43:50;;;;;;;9.30;6.10;;;;;;;14.25;56.17;99920.38;108474;1256;67737;-46
2023/04/25 05:46:23;;;;;;;9.80;6.30;;;;;;;14.32;56.08;99921.77;108307;1254;60262;-46
2023/04/25 05:49:25;;;;;;;11.60;5.90;;;;;;;14.42;55.93;99923.88;107948;1266;59556;-46
2023/04/25 05:51:52;;;;;;;10.70;6.10;;;;;;;14.50;55.57;99918.81;108377;1250;67525;-45
2023/04/25 05:54:37;;;;;;;9.30;6.10;;;;;;;14.57;55.37;99910.56;108627;1256;63910;-47
2023/04/25 05:57:04;;;;;;;10.40;6.00;;;;;;;14.62;55.22;99910.70;108465;1251;65724;-46
2023/04/25 05:59:31;;;;;;;9.00;5.90;;;;;;;14.69;54.78;99912.53;108558;1256;58617;-47
2023/04/25 06:01:58;;;;;;;10.40;5.70;;;;;;;14.74;54.49;99913.70;108497;1254;58741;-47
2023/04/25 06:04:26;;;;;;;8.20;5.40;;;;;;;14.79;54.15;99912.16;108454;1251;67231;-46
2023/04/25 06:06:53;;;;;;;9.70;5.40;;;;;;;14.83;54.09;99909.91;108582;1255;63693;-47
2023/04/25 06:09:21;;;;;;;8.10;5.90;;;;;;;14.88;53.69;99906.77;108512;1253;65837;-47
2023/04/25 06:11:48;;;;;;;14.00;6.10;;;;;;;14.94;53.11;99905.17;108523;1257;58629;-47
2023/04/25 06:14:15;;;;;;;8.20;5.70;;;;;;;14.99;52.94;99906.48;108578;1259;58950;-47
2023/04/25 06:16:46;;;;;;;12.00;5.90;;;;;;;15.04;52.91;99903.33;108498;1257;67604;-46
2023/04/25 06:19:13;;;;;;;9.30;6.20;;;;;;;15.09;52.97;99901.60;108697;1255;64777;-46
2023/04/25 06:21:42;;;;;;;8.90;6.20;;;;;;;15.15;52.42;99900.45;108460;1252;65298;-46
2023/04/25 06:24:10;;;;;;;7.90;5.90;;;;;;;15.19;52.26;99894.67;108453;1256;58296;-46
2023/04/25 06:26:36;;;;;;;9.00;5.20;;;;;;;15.24;51.97;99896.59;108467;1253;58869;-47
2023/04/25 06:29:04;;;;;;;8.70;5.60;;;;;;;15.30;51.80;99893.67;108542;1256;67494;-48
2023/04/25 06:31:32;;;;;;;8.50;5.60;;;;;;;15.36;51.60;99893.41;108416;1258;64446;-46
2023/04/25 06:34:00;;;;;;;8.40;5.60;;;;;;;15.41;51.37;99894.80;108516;1251;65671;-47
2023/04/25 06:36:27;;;;;;;8.90;5.70;;;;;;;15.45;51.00;99890.79;108466;1258;58492;-45
2023/04/25 06:38:59;;;;;;;8.60;5.20;;;;;;;15.50;50.75;99888.86;108759;1255;59672;-46
2023/04/25 06:41:25;;;;;;;9.80;6.30;;;;;;;15.56;50.62;99888.79;108552;1251;66074;-46
2023/04/25 06:43:56;;;;;;;10.30;5.60;;;;;;;15.62;50.43;99885.47;108507;1250;64332;-46
2023/04/25 06:46:38;;;;;;;7.90;5.50;;;;;;;15.70;49.95;99882.25;108533;1252;75518;-46
2023/04/25 06:49:05;;;;;;;7.00;4.60;;;;;;;15.78;49.74;99884.95;108551;1254;58177;-46
2023/04/25 06:51:32;;;;;;;8.10;5.20;;;;;;;15.86;49.33;99884.60;108645;1256;60988;-46
2023/04/25 06:53:59;;;;;;;9.00;5.70;;;;;;;15.94;49.05;99882.48;108502;1257;67282;-47
2023/04/25 06:56:30;;;;;;;7.20;4.70;;;;;;;16.02;48.55;99880.61;108475;1251;64409;-46
2023/04/25 06:59:04;;;;;;;10.10;6.10;;;;;;;16.09;48.27;99880.50;108466;1253;66191;-46
2023/04/25 07:01:36;;;;;;;9.70;4.90;;;;;;;16.17;48.04;99874.86;108437;1254;60337;-46
2023/04/25 07:04:07;;;;;;;8.60;5.40;;;;;;;16.24;47.91;99875.10;108445;1257;59592;-46
2023/04/25 07:06:42;;;;;;;11.60;5.90;;;;;;;16.31;47.42;99875.17;108476;1252;66163;-47
2023/04/25 07:09:12;;;;;;;10.90;5.30;;;;;;;16.39;46.69;99876.05;108607;1259;64097;-46
2023/04/25 07:11:40;;;;;;;9.70;5.10;;;;;;;16.47;46.79;99877.89;108555;1253;66770;-46
2023/04/25 07:14:07;;;;;;;8.80;5.50;;;;;;;16.55;46.38;99879.45;108543;1251;58920;-47
2023/04/25 07:16:34;;;;;;;8.90;5.20;;;;;;;16.63;45.92;99879.89;108621;1252;60100;-46
2023/04/25 07:19:02;;;;;;;20.10;7.30;;;;;;;16.72;45.77;99878.88;108416;1254;66142;-46
2023/04/25 07:21:30;;;;;;;9.70;5.30;;;;;;;16.82;45.84;99875.02;108541;1257;62805;-46
2023/04/25 07:23:59;;;;;;;7.50;4.70;;;;;;;16.91;45.58;99871.45;108453;1254;64736;-46
2023/04/25 07:26:30;;;;;;;7.80;4.80;;;;;;;17.01;45.89;99872.11;108493;1257;58944;-46
2023/04/25 07:29:16;;;;;;;9.90;4.90;;;;;;;17.12;45.24;99872.39;108568;1254;59176;-46
2023/04/25 07:31:43;;;;;;;8.30;4.90;;;;;;;17.23;44.85;99869.02;108438;1254;66995;-48
2023/04/25 07:34:10;;;;;;;8.40;5.30;;;;;;;17.32;44.41;99868.75;108623;1257;64359;-46
2023/04/25 07:36:37;;;;;;;7.00;4.70;;;;;;;17.41;43.93;99870.85;108494;1254;65209;-46
2023/04/25 07:39:04;;;;;;;8.00;4.80;;;;;;;17.49;43.47;99868.15;108459;1258;59613;-46
2023/04/25 07:41:31;;;;;;;11.40;5.40;;;;;;;17.55;42.83;99866.14;108471;1258;59635;-46
2023/04/25 07:43:58;;;;;;;8.80;5.00;;;;;;;17.61;42.92;99862.91;108407;1254;67985;-46
2023/04/25 07:46:25;;;;;;;8.70;5.10;;;;;;;17.70;43.12;99859.60;108471;1253;63659;-46
2023/04/25 07:48:53;;;;;;;7.80;5.20;;;;;;;17.80;42.54;99856.44;108438;1254;66332;-47
2023/04/25 07:51:21;;;;;;;12.60;5.30;;;;;;;17.88;41.84;99855.23;108439;1256;60091;-46
2023/04/25 07:53:51;;;;;;;9.30;4.80;;;;;;;17.93;41.77;99851.23;108455;1257;60236;-46
2023/04/25 07:56:19;;;;;;;12.40;6.10;;;;;;;17.99;42.09;99851.41;108494;1253;67004;-46
2023/04/25 07:58:46;;;;;;;13.20;5.10;;;;;;;18.08;41.88;99849.84;108450;1254;72313;-45
2023/04/25 08:01:14;;;;;;;8.70;4.00;;;;;;;18.15;41.81;99848.04;108501;1253;65984;-46
2023/04/25 08:03:53;;;;;;;7.60;4.20;;;;;;;18.23;41.74;99845.85;108407;1254;58578;-46
2023/04/25 08:06:53;;;;;;;9.30;3.80;;;;;;;18.36;41.78;99847.98;108437;1257;58809;-46
2023/04/25 08:09:26;;;;;;;7.10;4.30;;;;;;;18.51;41.58;99847.70;108480;1253;67336;-49
2023/04/25 08:11:54;;;;;;;8.20;4.20;;;;;;;18.64;40.99;99847.07;108474;1260;64338;-46
2023/04/25 08:14:25;;;;;;;9.20;4.10;;;;;;;18.78;40.57;99845.04;108396;1255;66178;-46
2023/04/25 08:16:52;;;;;;;6.80;4.20;;;;;;;18.91;40.43;99842.25;108518;1254;58839;-46
2023/04/25 08:19:19;;;;;;;7.10;3.70;;;;;;;19.03;39.96;99838.65;108413;1254;58895;-46
2023/04/25 08:21:46;;;;;;;8.80;4.20;;;;;;;19.08;39.72;99842.20;108495;1260;67403;-46
2023/04/25 08:24:16;;;;;;;7.90;4.50;;;;;;;19.15;39.75;99843.94;108379;1252;63466;-49
2023/04/25 08:26:43;;;;;;;8.50;4.20;;;;;;;19.23;39.49;99840.23;108426;1256;66301;-45
2023/04/25 08:29:14;;;;;;;8.10;4.60;;;;;;;19.32;39.07;99834.27;108438;1260;60419;-46
2023/04/25 08:31:42;;;;;;;8.30;4.80;;;;;;;19.42;39.12;99829.95;108556;1253;60014;-46
2023/04/25 08:34:09;;;;;;;6.60;4.00;;;;;;;19.54;39.31;99828.50;108373;1254;67666;-47
2023/04/25 08:36:44;;;;;;;6.00;3.80;;;;;;;19.67;38.77;99827.61;108519;1258;63739;-47
2023/04/25 08:39:30;;;;;;;9.50;4.30;;;;;;;19.73;38.14;99822.56;108551;1254;65150;-46
2023/04/25 08:42:15;;;;;;;9.30;4.40;;;;;;;19.80;38.20;99823.29;108475;1251;58943;-46
2023/04/25 08:44:42;;;;;;;7.40;3.50;;;;;;;19.85;38.26;99817.80;108514;1254;59035;-46
2023/04/25 08:47:10;;;;;;;8.60;4.20;;;;;;;19.98;38.22;99814.42;108430;1254;71707;-46
2023/04/25 08:49:50;;;;;;;9.70;4.10;;;;;;;20.12;37.91;99815.60;108390;1260;63659;-46
2023/04/25 08:52:17;;;;;;;8.20;3.90;;;;;;;20.19;37.63;99809.02;108284;1251;68117;-57
2023/04/25 08:54:44;;;;;;;8.40;3.50;;;;;;;20.21;37.02;99811.35;108281;1257;59252;-46
2023/04/25 08:57:11;;;;;;;7.50;3.40;;;;;;;20.22;36.56;99814.94;108462;1254;59002;-46
2023/04/25 08:59:39;;;;;;;7.30;3.50;;;;;;;20.19;36.41;99810.56;108581;1256;67572;-46
2023/04/25 09:02:08;;;;;;;7.40;3.60;;;;;;;20.16;36.01;99811.84;108448;1251;62844;-47
2023/04/25 09:04:35;;;;;;;7.80;3.80;;;;;;;20.15;36.15;99808.05;108434;1251;64856;-47
2023/04/25 09:07:02;;;;;;;7.80;3.40;;;;;;;20.14;36.59;99807.80;108280;1255;58762;-46
2023/04/25 09:09:29;;;;;;;7.40;3.60;;;;;;;20.13;36.33;99804.25;108464;1251;60894;-46
2023/04/25 09:11:56;;;;;;;9.40;4.10;;;;;;;20.14;35.79;99798.80;108483;1253;66185;-46
2023/04/25 09:14:25;;;;;;;7.70;3.90;;;;;;;20.18;36.06;99800.55;108486;1251;64304;-45
2023/04/25 09:17:04;;;;;;;10.50;4.90;;;;;;;20.24;36.33;99804.95;108449;1254;64739;-46
2023/04/25 09:19:39;;;;;;;7.20;3.70;;;;;;;20.26;35.80;99798.71;108459;1253;58875;-45
2023/04/25 09:22:15;;;;;;;9.00;4.10;;;;;;;20.24;35.44;99797.69;108461;1251;58586;-45
2023/04/25 09:24:44;;;;;;;8.10;3.40;;;;;;;20.23;35.34;99795.79;108517;1253;68545;-45
2023/04/25 09:27:12;;;;;;;6.30;3.10;;;;;;;20.23;35.24;99795.21;108436;1254;65890;-45
2023/04/25 09:29:40;;;;;;;9.60;3.70;;;;;;;20.22;35.23;99796.40;108566;1251;65904;-45
2023/04/25 09:32:21;;;;;;;8.30;3.70;;;;;;;20.22;35.26;99795.59;108592;1254;58967;-46
2023/04/25 09:34:53;;;;;;;6.50;3.60;;;;;;;20.27;35.12;99791.44;108520;1251;59177;-47
2023/04/25 09:37:26;;;;;;;8.80;3.40;;;;;;;20.32;34.94;99786.45;108520;1253;68951;-46
2023/04/25 09:40:05;;;;;;;8.40;3.40;;;;;;;20.36;35.29;99786.58;108572;1251;62460;-46
2023/04/25 09:42:35;;;;;;;7.00;3.50;;;;;;;20.40;35.12;99786.17;108553;1254;66060;-45
2023/04/25 09:45:02;;;;;;;7.00;3.50;;;;;;;20.40;35.18;99786.97;108388;1254;59313;-46
2023/04/25 09:47:32;;;;;;;6.00;3.30;;;;;;;20.44;35.40;99779.77;108294;1252;59010;-45
2023/04/25 09:50:00;;;;;;;6.00;2.90;;;;;;;20.52;35.42;99779.14;108216;1251;69474;-45
2023/04/25 09:52:26;;;;;;;6.20;2.70;;;;;;;20.59;35.41;99779.89;108421;1257;62917;-47
2023/04/25 09:55:11;;;;;;;5.60;3.00;;;;;;;20.67;34.85;99776.32;108369;1256;66427;-46
2023/04/25 09:57:39;;;;;;;5.40;2.70;;;;;;;20.73;34.62;99767.68;108491;1254;60148;-46
2023/04/25 10:00:10;;;;;;;6.60;3.30;;;;;;;20.85;34.76;99767.16;108453;1257;60417;-45
2023/04/25 10:02:41;;;;;;;7.30;3.40;;;;;;;20.94;33.80;99768.27;108548;1252;66764;-45
2023/04/25 10:05:09;;;;;;;6.40;3.10;;;;;;;21.02;34.21;99763.54;108348;1254;65619;-46
2023/04/25 10:07:40;;;;;;;8.70;3.00;;;;;;;21.10;34.03;99762.59;108397;1258;66240;-46
2023/04/25 10:10:15;;;;;;;6.70;2.90;;;;;;;21.19;33.12;99757.52;108208;1251;59183;-45
2023/04/25 10:12:43;;;;;;;9.00;2.40;;;;;;;21.23;32.77;99752.98;108671;1254;58834;-46
2023/04/25 10:15:10;;;;;;;9.10;3.20;;;;;;;21.35;32.75;99749.27;108658;1253;68128;-46
2023/04/25 10:17:37;;;;;;;6.90;2.70;;;;;;;21.44;33.02;99747.44;108605;1254;64161;-44
2023/04/25 10:20:10;;;;;;;6.40;3.10;;;;;;;21.57;33.08;99743.71;108427;1254;65139;-46
2023/04/25 10:22:43;;;;;;;8.40;3.20;;;;;;;21.71;32.69;99739.01;108323;1252;61055;-45
2023/04/25 10:25:11;;;;;;;7.90;3.30;;;;;;;21.85;31.97;99742.71;108504;1253;60514;-46
2023/04/25 10:27:38;;;;;;;5.30;2.80;;;;;;;21.98;31.90;99742.94;108506;1251;67234;-45
2023/04/25 10:30:12;;;;;;;8.20;3.10;;;;;;;22.10;31.37;99734.56;108627;1253;63072;-45
2023/04/25 10:32:39;;;;;;;7.40;2.80;;;;;;;22.22;31.73;99735.93;108614;1253;67446;-46
2023/04/25 10:35:16;;;;;;;5.50;2.90;;;;;;;22.34;31.51;99734.56;108528;1252;58969;-45
2023/04/25 10:38:05;;;;;;;5.60;2.90;;;;;;;22.43;31.28;99736.36;108579;1252;58514;-46
2023/04/25 10:40:33;;;;;;;6.20;2.80;;;;;;;22.51;31.22;99730.27;108691;1257;67006;-46
2023/04/25 10:43:28;;;;;;;6.00;2.90;;;;;;;22.57;30.91;99727.95;108602;1254;62898;-46
2023/04/25 10:45:54;;;;;;;8.10;3.20;;;;;;;22.64;30.54;99728.80;108500;1253;66431;-45
2023/04/25 10:48:47;;;;;;;6.70;2.40;;;;;;;22.66;30.22;99726.39;108598;1253;60848;-45
2023/04/25 10:51:28;;;;;;;4.90;2.30;;;;;;;22.59;30.08;99727.89;108443;1251;59382;-49
2023/04/25 10:54:09;;;;;;;8.90;3.10;;;;;;;22.50;30.49;99723.98;108514;1253;66996;-45
2023/04/25 10:56:37;;;;;;;10.30;2.70;;;;;;;22.50;31.11;99719.88;108580;1251;63052;-47
2023/04/25 10:59:09;;;;;;;5.80;2.80;;;;;;;22.52;31.18;99717.63;108614;1254;66509;-45
2023/04/25 11:01:41;;;;;;;6.30;2.60;;;;;;;22.55;31.17;99715.47;108566;1256;59915;-46
2023/04/25 11:04:21;;;;;;;5.00;2.60;;;;;;;22.60;30.89;99714.02;108525;1253;58591;-46
2023/04/25 11:07:01;;;;;;;5.50;2.60;;;;;;;22.68;30.51;99707.57;108576;1251;68940;-46
2023/04/25 11:09:33;;;;;;;6.30;2.80;;;;;;;22.70;29.82;99713.38;108455;1257;63720;-45
2023/04/25 11:12:00;;;;;;;5.70;3.10;;;;;;;22.65;29.79;99714.02;108563;1253;67421;-46
2023/04/25 11:14:27;;;;;;;7.50;3.00;;;;;;;22.60;29.87;99711.13;108516;1254;60096;-46
2023/04/25 11:16:57;;;;;;;8.20;3.00;;;;;;;22.55;30.03;99707.96;108550;1251;58195;-46
2023/04/25 11:19:27;;;;;;;6.30;2.80;;;;;;;22.47;30.19;99706.20;108580;1252;67387;-45
2023/04/25 11:21:57;;;;;;;7.20;3.30;;;;;;;22.43;30.40;99703.63;108651;1251;63725;-46
2023/04/25 11:24:32;;;;;;;6.20;3.40;;;;;;;22.46;30.63;99696.48;108485;1251;67741;-45
2023/04/25 11:26:59;;;;;;;6.60;3.00;;;;;;;22.50;31.06;99693.23;108545;1257;60165;-46
2023/04/25 11:29:33;;;;;;;5.80;2.60;;;;;;;22.55;30.78;99688.61;108610;1253;59365;-46
2023/04/25 11:32:00;;;;;;;5.60;2.90;;;;;;;22.66;31.10;99684.67;108589;1251;66607;-45
2023/04/25 11:34:30;;;;;;;7.70;3.50;;;;;;;22.78;30.55;99683.46;108581;1253;62740;-45
2023/04/25 11:36:57;;;;;;;6.40;2.50;;;;;;;22.86;30.43;99683.20;108676;1253;65369;-46
2023/04/25 11:39:24;;;;;;;7.90;3.50;;;;;;;22.87;30.28;99685.01;108700;1253;60889;-46
2023/04/25 11:41:52;;;;;;;6.00;2.50;;;;;;;22.76;30.42;99684.72;108534;1252;58467;-45